Dickeyville, Wisconsin
Current Conditions -  °F | °C
As of 10:55 AM on Thursday 30 Oct 2014 (Local Time) from KPVB Reporting Station
Broken Clouds Broken Clouds  
Wind Chill: 42°   Ceiling: 10000
Heat Index: 46°   Visibility: 10mi
Dew Point: 37°   Wind: 8mph
Humidity: 71%   Direction: 210°SSW
Pressure: 30.1"   Gusts: NA
Location:  42.63°N, 90.59°W
Report Text: KPVB 301555Z AUTO 21007KT 10SM BKN100 08/03 A3010 RMK AO1 T00790029
Loading
Personal Weather Stations






























Interactive Weather Map
Tropical Storm Tracking
New forecast layout! Learn more

10-Day Weather Forecast

Advertisements
Track Severe Weather on mobile